Time;durP1;ratioP1;P1;durP2;ratioP2;P2;SDS_P1;SDS_P2;PMS_P1;PMS_P2;Temp;Humidity;BMP_temperature;BMP_pressure;BME280_temperature;BME280_humidity;BME280_pressure;Samples;Min_cycle;Max_cycle;Signal;HPM_P1;HPM_P2
2022/08/26 08:50:29;;;;;;;5.28;4.13;;;;;;;26.25;49.38;93820.47;4942221;28;20202;-96
2022/08/26 08:53:28;;;;;;;5.03;4.18;;;;;;;25.88;51.27;93831.50;4952924;28;20254;-95
2022/08/26 08:56:23;;;;;;;5.20;3.95;;;;;;;26.15;50.17;93824.66;4925597;29;20230;-96
2022/08/26 08:59:08;;;;;;;3.72;3.42;;;;;;;26.08;49.86;93825.28;4937431;29;20249;-96
2022/08/26 09:02:21;;;;;;;9.90;4.57;;;;;;;26.43;49.49;93826.41;4909150;29;20258;-95
2022/08/26 09:05:23;;;;;;;13.95;4.43;;;;;;;26.49;48.91;93817.84;4911970;29;20222;-96
2022/08/26 09:08:20;;;;;;;8.23;4.00;;;;;;;26.70;48.36;93833.84;4907434;29;20214;-95
2022/08/26 09:11:04;;;;;;;6.43;4.28;;;;;;;26.80;48.04;93824.59;4882784;29;20288;-96
2022/08/26 09:13:51;;;;;;;10.75;4.05;;;;;;;26.91;47.61;93829.03;4892305;29;20362;-96
2022/08/26 09:17:10;;;;;;;6.78;4.10;;;;;;;26.10;50.69;93817.41;4925238;29;20559;-93
2022/08/26 09:20:20;;;;;;;6.80;4.32;;;;;;;26.73;48.75;93818.06;4898739;29;20234;-96
2022/08/26 09:23:07;;;;;;;4.30;3.88;;;;;;;27.45;48.25;93819.34;4903165;29;20281;-96
2022/08/26 09:25:59;;;;;;;5.57;3.67;;;;;;;27.94;45.76;93814.59;4892120;29;20238;-96
2022/08/26 09:28:54;;;;;;;6.50;4.40;;;;;;;27.63;46.15;93823.09;4904568;29;20743;-96
2022/08/26 09:31:39;;;;;;;6.72;3.70;;;;;;;26.48;48.79;93819.25;4920697;29;20218;-96
2022/08/26 09:34:25;;;;;;;5.13;3.88;;;;;;;26.32;50.02;93824.84;4908412;29;20240;-96
2022/08/26 09:37:10;;;;;;;6.43;4.88;;;;;;;27.50;47.04;93815.78;4921962;29;20270;-96
2022/08/26 09:40:25;;;;;;;5.57;3.88;;;;;;;27.67;46.59;93816.63;4934476;29;20195;-95
2022/08/26 09:43:16;;;;;;;7.57;3.83;;;;;;;28.18;46.56;93820.47;4931727;29;20255;-95
2022/08/26 09:46:20;;;;;;;6.55;3.83;;;;;;;28.78;44.51;93819.19;4916250;29;20231;-95
2022/08/26 09:49:30;;;;;;;6.28;3.90;;;;;;;29.05;44.54;93803.34;4936678;29;20213;-94
2022/08/26 09:52:23;;;;;;;5.35;3.70;;;;;;;28.26;46.08;93808.25;4939146;29;20214;-95
2022/08/26 09:55:20;;;;;;;24.25;5.50;;;;;;;28.34;45.26;93808.97;4908351;29;20207;-95
2022/08/26 09:58:36;;;;;;;7.78;3.50;;;;;;;28.19;47.06;93804.63;4912983;29;20294;-96
2022/08/26 10:01:34;;;;;;;5.40;3.97;;;;;;;28.92;44.97;93799.00;4919768;29;20235;-96
2022/08/26 10:04:29;;;;;;;5.10;4.13;;;;;;;29.20;45.24;93793.22;4921715;29;20313;-94
2022/08/26 10:07:44;;;;;;;6.53;4.35;;;;;;;29.59;44.05;93784.50;4912869;29;20302;-95
2022/08/26 10:10:44;;;;;;;4.20;3.80;;;;;;;29.56;45.50;93786.69;4925759;29;20206;-94
2022/08/26 10:13:39;;;;;;;5.53;4.30;;;;;;;28.73;47.85;93783.81;4913646;28;20257;-91
2022/08/26 10:16:33;;;;;;;4.50;4.10;;;;;;;28.37;48.00;93775.13;4903810;29;20253;-96
2022/08/26 10:19:25;;;;;;;7.68;4.55;;;;;;;29.15;46.91;93780.22;4929989;29;20214;-96
2022/08/26 10:22:31;;;;;;;5.13;4.50;;;;;;;28.81;45.56;93765.84;4938200;29;20275;-95
2022/08/26 10:25:21;;;;;;;7.22;4.55;;;;;;;28.56;47.39;93771.56;4938868;29;20216;-94
2022/08/26 10:28:25;;;;;;;8.55;4.32;;;;;;;29.32;44.42;93763.59;4910857;29;20207;-95
2022/08/26 10:31:46;;;;;;;5.28;4.40;;;;;;;29.44;44.94;93769.38;4911866;29;20218;-94
2022/08/26 10:34:32;;;;;;;5.32;4.82;;;;;;;29.25;44.94;93767.97;4877040;29;20214;-95
2022/08/26 10:37:20;;;;;;;14.15;5.47;;;;;;;29.39;44.70;93756.41;4899722;29;20261;-95
2022/08/26 10:40:18;;;;;;;7.75;4.88;;;;;;;29.37;44.35;93759.31;4885469;29;20685;-95
2022/08/26 10:43:17;;;;;;;8.55;4.88;;;;;;;28.64;45.83;93747.06;4912048;29;20210;-96
2022/08/26 10:46:08;;;;;;;10.85;4.53;;;;;;;28.95;49.21;93752.09;4908553;29;20771;-95
2022/08/26 10:48:56;;;;;;;6.85;4.30;;;;;;;29.74;44.56;93743.31;4928127;29;20210;-95
2022/08/26 10:52:01;;;;;;;10.10;4.93;;;;;;;29.90;43.45;93744.69;4917995;29;20202;-96
2022/08/26 10:54:55;;;;;;;5.45;4.00;;;;;;;29.75;44.67;93738.94;4902249;29;20211;-96
2022/08/26 10:57:51;;;;;;;8.40;4.53;;;;;;;29.79;44.53;93744.00;4920893;29;20194;-95
2022/08/26 13:24:12;;;;;;;3.78;2.70;;;;;;;30.18;37.62;93616.69;4925012;29;20265;-95
2022/08/26 13:26:56;;;;;;;6.15;3.08;;;;;;;30.51;36.00;93614.97;4914246;29;20290;-93
2022/08/26 13:29:44;;;;;;;3.80;2.75;;;;;;;30.77;35.01;93623.41;4919381;29;20218;-96
2022/08/26 13:32:30;;;;;;;6.05;3.00;;;;;;;30.52;35.71;93611.34;4926886;29;20230;-95
2022/08/26 13:35:15;;;;;;;6.50;2.30;;;;;;;30.83;35.35;93608.88;4931275;29;20293;-96
2022/08/26 13:38:00;;;;;;;2.58;2.25;;;;;;;30.61;35.86;93612.00;4899325;29;20284;-96
2022/08/26 13:40:47;;;;;;;6.05;2.45;;;;;;;30.07;35.07;93610.97;4915701;29;20238;-96
2022/08/26 13:43:31;;;;;;;4.22;2.33;;;;;;;30.53;35.23;93606.28;4926058;29;20217;-96
2022/08/26 13:46:18;;;;;;;3.97;2.53;;;;;;;30.57;35.82;93606.22;4917750;29;20353;-96
2022/08/26 13:49:04;;;;;;;4.88;2.28;;;;;;;30.60;34.95;93610.56;4914102;29;20342;-96
2022/08/26 13:51:49;;;;;;;5.57;2.45;;;;;;;30.14;35.77;93617.41;4921779;29;20781;-94
2022/08/26 13:54:33;;;;;;;5.88;2.80;;;;;;;30.46;36.20;93601.97;4931525;29;20258;-96
2022/08/26 13:57:17;;;;;;;5.18;2.90;;;;;;;30.24;35.77;93600.00;4906965;29;20206;-90
2022/08/26 14:00:02;;;;;;;5.95;2.28;;;;;;;31.29;33.39;93598.28;4917670;29;20202;-96
2022/08/26 14:02:53;;;;;;;8.02;2.47;;;;;;;31.53;34.50;93603.75;4917800;29;20273;-93
2022/08/26 14:05:39;;;;;;;2.40;2.20;;;;;;;30.72;33.83;93607.53;4927567;29;20199;-93
2022/08/26 14:08:23;;;;;;;3.05;2.47;;;;;;;30.72;34.05;93604.66;4918754;29;20345;-96
2022/08/26 14:11:09;;;;;;;2.70;2.03;;;;;;;30.87;34.19;93608.81;4900200;29;20816;-96
2022/08/26 14:13:53;;;;;;;4.28;2.05;;;;;;;30.61;32.74;93600.44;4929334;29;20227;-93
2022/08/26 14:16:40;;;;;;;2.72;2.13;;;;;;;30.58;35.00;93599.00;4898179;29;20227;-96
2022/08/26 14:19:24;;;;;;;3.97;2.40;;;;;;;30.64;34.19;93610.50;4921188;29;20211;-96
2022/08/26 14:22:09;;;;;;;2.60;2.40;;;;;;;30.89;33.85;93605.19;4919811;29;20225;-95
2022/08/26 14:24:53;;;;;;;2.78;2.35;;;;;;;30.84;33.59;93604.53;4911974;29;20804;-96
2022/08/26 14:27:41;;;;;;;3.05;2.38;;;;;;;29.96;35.97;93603.81;4902584;29;20305;-96
2022/08/26 14:30:27;;;;;;;4.25;2.33;;;;;;;30.51;35.24;93609.91;4908462;29;20275;-96
2022/08/26 14:33:13;;;;;;;2.28;2.00;;;;;;;29.74;34.86;93603.94;4924917;29;20219;-96
2022/08/26 14:39:06;;;;;;;4.50;2.50;;;;;;;31.12;33.18;93594.13;4916230;29;20214;-96
2022/08/26 14:42:01;;;;;;;3.83;2.22;;;;;;;30.82;33.53;93601.66;4952594;28;20198;-92
2022/08/26 14:44:49;;;;;;;4.13;2.20;;;;;;;29.87;33.96;93596.66;4923856;29;20215;-91
2022/08/26 14:47:33;;;;;;;2.72;1.95;;;;;;;30.92;33.73;93595.75;4906281;29;20236;-96
2022/08/26 14:50:23;;;;;;;2.63;2.28;;;;;;;30.44;32.78;93590.41;4904914;29;20231;-96
2022/08/26 14:56:19;;;;;;;5.90;2.13;;;;;;;29.55;34.99;93576.63;4906330;29;20222;-95
2022/08/26 14:59:06;;;;;;;2.90;2.30;;;;;;;29.76;35.44;93575.03;4909542;29;20202;-96
2022/08/26 15:01:53;;;;;;;6.03;2.22;;;;;;;28.98;35.57;93565.31;4893329;29;20262;-92
2022/08/26 15:04:39;;;;;;;8.88;2.30;;;;;;;29.21;35.96;93586.84;4900050;29;20207;-96
2022/08/26 15:07:23;;;;;;;3.38;2.40;;;;;;;29.85;34.25;93576.44;4932015;29;20246;-95
2022/08/26 15:10:12;;;;;;;6.80;2.08;;;;;;;30.10;33.89;93577.72;4930895;29;20289;-94
2022/08/26 15:12:58;;;;;;;7.90;2.30;;;;;;;30.17;34.44;93574.78;4912107;29;20203;-96
2022/08/26 15:15:43;;;;;;;2.50;2.30;;;;;;;29.99;35.68;93570.56;4911898;29;20212;-94
2022/08/26 15:18:28;;;;;;;3.50;2.03;;;;;;;30.19;34.96;93580.53;4914602;29;20214;-96
2022/08/26 15:21:12;;;;;;;2.35;2.10;;;;;;;29.46;35.12;93569.44;4927939;29;20218;-96
2022/08/26 15:24:06;;;;;;;4.43;2.30;;;;;;;29.50;35.39;93557.88;4890514;29;20217;-96
2022/08/26 15:26:58;;;;;;;6.53;2.25;;;;;;;30.30;34.94;93556.59;4885850;29;20227;-96
2022/08/26 15:29:46;;;;;;;3.00;2.65;;;;;;;29.66;35.36;93564.28;4898512;29;20206;-96
2022/08/26 15:32:30;;;;;;;5.38;2.47;;;;;;;29.51;35.25;93559.31;4912577;29;20207;-96
2022/08/26 15:35:15;;;;;;;5.72;2.67;;;;;;;29.88;34.83;93554.00;4897346;29;20210;-95
2022/08/26 15:37:59;;;;;;;7.00;2.78;;;;;;;29.79;34.88;93553.34;4906409;29;20572;-91
2022/08/26 15:40:47;;;;;;;3.97;2.58;;;;;;;29.96;35.02;93556.88;4909116;29;20214;-95
2022/08/26 15:43:31;;;;;;;3.28;2.38;;;;;;;30.06;35.43;93551.72;4909576;29;20296;-96
2022/08/26 15:46:15;;;;;;;4.53;2.30;;;;;;;29.99;33.80;93544.56;4904895;29;20322;-91
2022/08/26 15:49:00;;;;;;;8.48;3.08;;;;;;;30.09;34.40;93550.25;4897035;29;20270;-96
2022/08/26 15:51:46;;;;;;;6.22;2.70;;;;;;;30.35;34.59;93539.91;4901761;29;20219;-96
2022/08/26 15:54:31;;;;;;;5.05;2.45;;;;;;;29.65;35.80;93539.00;4904870;29;20286;-96
2022/08/26 15:57:16;;;;;;;3.08;2.72;;;;;;;29.60;36.25;93537.59;4906286;29;20206;-95
2022/08/26 16:00:01;;;;;;;3.20;2.40;;;;;;;29.69;37.23;93527.41;4891986;29;20203;-96
2022/08/26 16:02:49;;;;;;;9.45;2.88;;;;;;;29.67;37.52;93524.56;4910186;29;20206;-94
2022/08/26 16:05:42;;;;;;;5.82;2.97;;;;;;;29.37;37.50;93533.41;4918992;29;20218;-94
2022/08/26 16:08:27;;;;;;;3.03;2.63;;;;;;;29.56;36.54;93529.69;4919273;29;20199;-92
2022/08/26 16:11:18;;;;;;;4.63;2.70;;;;;;;29.03;37.18;93525.63;4900867;29;20210;-96
2022/08/26 16:14:05;;;;;;;4.95;2.53;;;;;;;29.42;37.25;93529.06;4926508;29;20199;-96
2022/08/26 16:16:52;;;;;;;6.97;3.05;;;;;;;29.57;36.26;93521.72;4892551;29;20241;-95
2022/08/26 16:19:36;;;;;;;7.22;2.60;;;;;;;29.02;37.01;93530.66;4914987;29;20214;-96
2022/08/26 16:22:21;;;;;;;4.25;2.80;;;;;;;29.13;37.12;93529.16;4906551;29;20219;-95
2022/08/26 16:25:06;;;;;;;6.85;2.80;;;;;;;28.51;37.93;93522.19;4894783;29;20222;-95
2022/08/26 16:27:53;;;;;;;6.10;2.90;;;;;;;28.56;39.46;93529.38;4906641;29;20309;-96
2022/08/26 16:30:41;;;;;;;4.75;2.55;;;;;;;28.72;38.36;93533.66;4902735;29;20260;-95
2022/08/26 16:33:25;;;;;;;6.25;2.92;;;;;;;28.76;37.64;93533.69;4895694;29;20312;-95
2022/08/26 16:36:11;;;;;;;4.68;2.92;;;;;;;28.95;37.26;93543.69;4913769;29;20207;-95
2022/08/26 16:39:02;;;;;;;9.05;3.08;;;;;;;29.05;37.15;93543.66;4910006;29;20211;-93
2022/08/26 16:41:50;;;;;;;3.90;2.85;;;;;;;28.58;38.41;93546.66;4930549;29;20230;-94
2022/08/26 16:44:43;;;;;;;6.60;2.90;;;;;;;28.67;38.73;93540.88;4922620;29;20209;-95
2022/08/26 16:47:27;;;;;;;5.10;2.88;;;;;;;28.54;38.92;93549.56;4908259;29;20301;-94
2022/08/26 16:50:12;;;;;;;5.85;2.95;;;;;;;28.67;38.29;93555.28;4922944;29;20206;-96
2022/08/26 16:52:57;;;;;;;3.70;2.85;;;;;;;28.51;38.95;93550.31;4893461;29;20210;-96
2022/08/26 16:55:47;;;;;;;6.07;3.17;;;;;;;28.17;39.37;93542.41;4913860;29;20294;-96
2022/08/26 16:58:32;;;;;;;3.88;2.42;;;;;;;28.31;38.59;93539.53;4907885;29;20277;-95
2022/08/26 17:01:17;;;;;;;3.58;2.70;;;;;;;27.87;40.96;93542.41;4886094;29;20293;-96
2022/08/26 17:04:02;;;;;;;4.72;3.38;;;;;;;27.96;40.59;93540.97;4907360;29;20222;-93
2022/08/26 17:06:46;;;;;;;3.38;3.08;;;;;;;27.93;41.01;93531.59;4893463;29;20289;-96
2022/08/26 17:09:30;;;;;;;4.25;2.80;;;;;;;27.85;40.60;93528.00;4902114;29;20274;-96
2022/08/26 17:12:15;;;;;;;4.75;3.08;;;;;;;27.73;40.51;93537.34;4901146;29;20281;-96
2022/08/26 17:14:59;;;;;;;4.57;2.90;;;;;;;27.54;41.39;93539.50;4910768;29;20214;-96
2022/08/26 17:17:43;;;;;;;7.05;3.60;;;;;;;27.37;42.44;93538.72;4913560;29;20312;-95
2022/08/26 17:20:28;;;;;;;4.78;3.00;;;;;;;27.28;42.01;93540.13;4900772;29;20203;-95
2022/08/26 17:23:14;;;;;;;5.40;3.17;;;;;;;27.08;43.53;93537.22;4908562;29;20309;-96
2022/08/26 17:25:58;;;;;;;7.93;3.65;;;;;;;26.82;43.76;93539.97;4905320;29;20211;-95
2022/08/26 17:28:42;;;;;;;12.70;3.80;;;;;;;26.72;44.66;93537.78;4895696;29;20309;-96
2022/08/26 17:31:26;;;;;;;4.28;3.60;;;;;;;26.59;44.69;93544.91;4931526;29;20210;-96
2022/08/26 17:34:10;;;;;;;10.70;4.00;;;;;;;26.41;45.61;93550.56;4913547;29;20202;-96
2022/08/26 17:36:54;;;;;;;6.25;3.30;;;;;;;26.25;46.07;93541.81;4901382;29;20199;-96
2022/08/26 17:39:42;;;;;;;4.82;3.40;;;;;;;26.02;46.39;93547.41;4915733;29;20207;-96
2022/08/26 17:42:27;;;;;;;5.93;3.83;;;;;;;25.82;46.97;93555.13;4924851;29;20249;-96
2022/08/26 17:45:14;;;;;;;7.13;4.32;;;;;;;25.76;48.01;93561.53;4926937;29;20263;-96
2022/08/26 17:48:02;;;;;;;8.20;4.85;;;;;;;25.71;48.55;93572.25;4937802;28;20320;-96
2022/08/26 17:50:46;;;;;;;10.07;4.53;;;;;;;25.59;49.54;93571.44;4916979;28;20253;-96
2022/08/26 17:53:32;;;;;;;9.63;4.47;;;;;;;25.44;50.15;93572.69;4901048;29;20301;-96
2022/08/26 17:56:25;;;;;;;7.65;4.32;;;;;;;25.16;51.35;93579.56;4916758;29;20199;-96
2022/08/26 17:59:09;;;;;;;11.90;4.57;;;;;;;25.06;51.75;93576.59;4927335;29;20211;-95
2022/08/26 18:01:54;;;;;;;14.70;4.70;;;;;;;24.84;53.16;93579.91;4907372;29;20246;-96
2022/08/26 18:04:38;;;;;;;6.75;4.07;;;;;;;24.48;55.26;93580.16;4911630;29;20194;-95
2022/08/26 18:07:22;;;;;;;8.25;4.30;;;;;;;24.05;57.68;93586.63;4910973;29;20242;-96
2022/08/26 18:10:08;;;;;;;10.57;4.28;;;;;;;23.74;58.61;93580.44;4898055;29;20713;-96
2022/08/26 18:12:54;;;;;;;8.38;4.97;;;;;;;23.54;59.18;93577.22;4913048;29;20210;-96
2022/08/26 18:15:44;;;;;;;11.50;4.80;;;;;;;23.27;60.25;93572.41;4883374;29;20216;-96
2022/08/26 18:18:32;;;;;;;8.45;5.03;;;;;;;23.17;60.27;93581.53;4915946;29;20242;-96
2022/08/26 18:21:22;;;;;;;9.27;4.47;;;;;;;23.05;61.38;93583.44;4927881;29;20210;-96
2022/08/26 18:24:09;;;;;;;7.38;4.65;;;;;;;22.85;61.81;93584.50;4920965;29;20218;-96
2022/08/26 18:26:53;;;;;;;13.93;4.93;;;;;;;22.84;62.42;93591.59;4921445;29;20219;-96
2022/08/26 18:29:38;;;;;;;7.78;5.07;;;;;;;22.74;62.64;93588.56;4910170;29;20278;-96
2022/08/26 18:32:23;;;;;;;8.75;5.10;;;;;;;22.65;62.85;93601.19;4907188;29;20205;-95
2022/08/26 18:35:08;;;;;;;7.00;5.05;;;;;;;22.68;63.37;93591.25;4913529;29;20206;-96
2022/08/26 18:37:52;;;;;;;7.43;6.00;;;;;;;22.57;63.42;93616.03;4956940;28;20202;-96
2022/08/26 18:40:39;;;;;;;17.95;6.43;;;;;;;23.09;60.51;93632.81;4928080;29;20202;-95
2022/08/26 18:43:23;;;;;;;12.75;6.22;;;;;;;23.36;58.42;93634.06;4919207;29;20230;-96
2022/08/26 18:46:09;;;;;;;12.23;6.13;;;;;;;23.56;58.31;93631.63;4927900;29;20198;-96
2022/08/26 18:48:55;;;;;;;11.80;6.13;;;;;;;23.32;59.39;93643.31;4925391;29;20234;-91
2022/08/26 18:51:40;;;;;;;10.82;6.50;;;;;;;23.27;60.31;93635.31;4916436;29;20207;-92
2022/08/26 18:54:24;;;;;;;12.55;7.22;;;;;;;23.08;61.03;93642.09;4911645;29;20219;-94
2022/08/26 18:57:11;;;;;;;11.43;6.35;;;;;;;23.14;61.25;93639.38;4917552;29;20194;-94
2022/08/26 18:59:55;;;;;;;15.93;6.57;;;;;;;23.11;61.44;93635.00;4921930;29;20218;-96
2022/08/26 19:02:40;;;;;;;15.57;6.72;;;;;;;22.95;62.38;93633.28;4915439;29;20218;-96
2022/08/26 19:05:26;;;;;;;15.15;6.57;;;;;;;22.86;62.85;93642.34;4925710;29;20301;-95
2022/08/26 19:08:10;;;;;;;16.42;6.38;;;;;;;22.97;62.55;93639.03;4903083;29;20230;-95
2022/08/26 19:10:55;;;;;;;13.93;6.82;;;;;;;23.06;61.96;93653.50;4898636;29;20269;-96
2022/08/26 19:13:40;;;;;;;13.30;6.82;;;;;;;22.99;62.20;93659.06;4912374;29;20228;-90
2022/08/26 19:16:25;;;;;;;17.85;7.15;;;;;;;22.68;63.30;93665.53;4931433;29;20195;-96
2022/08/26 19:19:11;;;;;;;16.35;6.32;;;;;;;22.80;63.58;93671.53;4924736;29;20203;-96
2022/08/26 19:21:55;;;;;;;15.10;6.90;;;;;;;22.92;63.94;93677.50;4906896;29;20270;-96
2022/08/26 19:24:39;;;;;;;15.63;6.57;;;;;;;22.92;64.18;93659.63;4914433;29;20206;-94
2022/08/26 19:27:23;;;;;;;13.85;6.78;;;;;;;22.80;64.71;93660.09;4918100;29;20259;-94
2022/08/26 19:30:08;;;;;;;18.25;7.53;;;;;;;22.55;66.73;93672.38;4899818;29;20279;-88
2022/08/26 19:32:53;;;;;;;19.58;9.00;;;;;;;22.35;69.90;93674.75;4892226;29;20267;-94
2022/08/26 19:35:37;;;;;;;12.65;5.32;;;;;;;21.85;66.57;93669.25;4892555;29;20301;-92
2022/08/26 19:38:22;;;;;;;6.90;4.35;;;;;;;21.73;65.12;93672.50;4922927;29;20250;-95
2022/08/26 19:41:10;;;;;;;8.70;4.28;;;;;;;21.85;63.03;93669.25;4913626;29;20289;-89
2022/08/26 19:43:57;;;;;;;4.93;3.58;;;;;;;21.68;61.25;93661.69;4899814;29;20278;-94
2022/08/26 19:46:42;;;;;;;5.93;3.95;;;;;;;21.35;63.49;93666.53;4899723;29;20337;-93
2022/08/26 19:49:26;;;;;;;9.23;4.95;;;;;;;21.13;66.50;93671.59;4889417;29;20727;-90
2022/08/26 19:52:11;;;;;;;11.23;5.28;;;;;;;20.84;69.47;93678.63;4901005;29;20199;-96
2022/08/26 19:54:56;;;;;;;11.93;7.32;;;;;;;20.70;74.14;93681.03;4895472;29;20287;-96
2022/08/26 19:57:41;;;;;;;10.98;8.82;;;;;;;20.67;75.86;93684.50;4913974;29;20234;-96
2022/08/26 20:00:28;;;;;;;18.30;9.52;;;;;;;20.19;80.66;93670.19;4921044;29;20263;-96
2022/08/26 20:03:14;;;;;;;16.00;10.20;;;;;;;20.56;80.03;93675.66;4904326;29;20226;-95
2022/08/26 20:06:24;;;;;;;15.07;10.10;;;;;;;20.37;81.31;93672.91;4916954;29;20604;-92
2022/08/26 20:09:08;;;;;;;17.03;10.50;;;;;;;20.41;80.86;93665.25;4910571;29;20213;-96
2022/08/26 20:11:53;;;;;;;16.65;10.05;;;;;;;20.46;80.81;93658.28;4894929;29;20223;-96
2022/08/26 20:14:40;;;;;;;19.70;10.05;;;;;;;20.40;80.56;93649.56;4940696;29;20221;-96
2022/08/26 20:17:27;;;;;;;21.05;10.68;;;;;;;20.35;79.26;93656.53;4927855;29;20233;-96
2022/08/26 20:26:49;;;;;;;14.00;8.47;;;;;;;20.17;76.63;93638.88;5237831;23;20330;-96
